To NAV CANADA Home Page Login to a new session Search on AWWS site Disclaimer Vers la page française équivalente Tips FAQ What's new on the site To the Forecasts and Observations / NOTAM section To "File a Flight Plan" website Publications and other links Update of the User's profile FIC Telephone Numbers My Weather Data Folder Route Weather Data Regional Weather Data Local Weather Data To the Forecasts and Observations / NOTAM section
Request Generated 10/19/2018 at 16:35:23 UTC . Weather information available at that time is displayed.

METAR/TAF

DELINE/NT    

METAR CYWJ 191600Z 13011KT 5SM BR BKN005 M05/M06 A3013 RMK ST7 VIS E 15 SLP224=
SPECI CYWJ 191518Z 12009G15KT 5SM BR BKN006 M05/M06 A3014 RMK ST7 VIS E 20 SLP230=
METAR CYWJ 191500Z 13008KT 5SM BR BKN004 M05/M06 A3015 RMK ST7 VIS E 30 SLP231=
METAR CYWJ 191400Z 12008KT 5SM BR SCT003 BKN005 M06/M07 A3018 RMK ST4ST3 VIS E 30 SLP240=

TAF CYWJ 191410Z 1914/1923 12008KT 6SM BR BKN008 TEMPO 1914/1919 2SM
BR SCT002 OVC004
FM191900 12015KT P6SM SCT010 TEMPO 1919/1923 BKN010
RMK NXT FCST BY 191800Z=
Your time UTC time
Weather data provided by Environment Canada and NAV CANADA